createdAt,value
2019-05-04T00:00:36.080Z,5.40
2019-05-04T00:03:06.179Z,5.30
2019-05-04T00:05:37.908Z,5.40
2019-05-04T00:08:09.986Z,5.40
2019-05-04T00:10:52.211Z,5.40
2019-05-04T00:13:24.670Z,5.50
2019-05-04T00:15:55.803Z,5.50
2019-05-04T00:18:25.895Z,5.40
2019-05-04T00:20:56.788Z,5.30
2019-05-04T00:23:29.074Z,5.20
2019-05-04T00:25:59.165Z,5.20
2019-05-04T00:28:35.548Z,5.20
2019-05-04T00:31:11.487Z,5.30
2019-05-04T00:33:51.008Z,5.30
2019-05-04T00:36:25.707Z,5.40
2019-05-04T00:38:58.415Z,5.40
2019-05-04T00:41:35.431Z,5.50
2019-05-04T00:44:07.591Z,5.50
2019-05-04T00:46:38.615Z,5.50
2019-05-04T00:49:08.691Z,5.50
2019-05-04T00:51:40.688Z,5.50
2019-05-04T00:54:10.869Z,5.50
2019-05-04T00:56:46.233Z,5.40
2019-05-04T00:59:26.835Z,5.30
2019-05-04T01:01:58.743Z,5.30
2019-05-04T01:04:30.727Z,5.30
2019-05-04T01:07:17.027Z,5.30
2019-05-04T01:09:36.619Z,5.20
2019-05-04T01:12:06.755Z,5.20
2019-05-04T01:14:40.495Z,5.20
2019-05-04T01:17:10.603Z,5.20
2019-05-04T01:19:40.708Z,5.20
2019-05-04T01:22:10.799Z,5.20
2019-05-04T01:24:45.171Z,5.20
2019-05-04T01:27:15.343Z,5.20
2019-05-04T01:29:45.614Z,5.10
2019-05-04T01:32:17.619Z,5.00
2019-05-04T01:35:05.213Z,4.80
2019-05-04T01:37:39.259Z,4.60
2019-05-04T01:40:19.747Z,4.40
2019-05-04T01:42:49.839Z,4.40
2019-05-04T01:45:30.795Z,4.30
2019-05-04T01:48:05.791Z,4.30
2019-05-04T01:50:37.683Z,4.30
2019-05-04T01:53:14.925Z,4.30
2019-05-04T01:55:46.019Z,4.20
2019-05-04T01:58:20.230Z,4.20
2019-05-04T02:00:51.979Z,4.20
2019-05-04T02:03:23.053Z,4.10
2019-05-04T02:05:55.101Z,4.00
2019-05-04T02:08:31.153Z,3.90
2019-05-04T02:11:01.331Z,3.80
2019-05-04T02:13:34.775Z,3.80
2019-05-04T02:16:10.739Z,3.80
2019-05-04T02:18:42.823Z,3.80
2019-05-04T02:21:22.396Z,3.80
2019-05-04T02:23:59.300Z,3.60
2019-05-04T02:26:54.667Z,3.60
2019-05-04T02:29:42.205Z,3.60
2019-05-04T02:32:19.769Z,3.70
2019-05-04T02:34:49.869Z,3.70
2019-05-04T02:37:38.255Z,3.70
2019-05-04T02:40:26.070Z,3.80
2019-05-04T02:42:56.644Z,3.80
2019-05-04T02:45:28.241Z,3.80
2019-05-04T02:48:12.245Z,3.80
2019-05-04T02:50:55.783Z,3.70
2019-05-04T02:53:26.987Z,3.70
2019-05-04T02:55:58.071Z,3.70
2019-05-04T02:58:38.162Z,3.70
2019-05-04T03:01:07.025Z,3.80
2019-05-04T03:03:40.335Z,3.80
2019-05-04T03:06:18.628Z,3.90
2019-05-04T03:08:49.684Z,4.00
2019-05-04T03:11:40.946Z,4.10
2019-05-04T03:14:11.023Z,4.10
2019-05-04T03:16:47.415Z,4.00
2019-05-04T03:19:27.533Z,4.00
2019-05-04T03:21:59.233Z,3.90
2019-05-04T03:24:31.198Z,4.00
2019-05-04T03:27:16.570Z,4.00
2019-05-04T03:30:00.472Z,4.10
2019-05-04T03:32:38.101Z,4.20
2019-05-04T03:35:24.364Z,4.20
2019-05-04T03:37:45.756Z,4.20
2019-05-04T03:40:16.261Z,4.10
2019-05-04T03:42:47.435Z,4.00
2019-05-04T03:45:46.551Z,4.10
2019-05-04T03:48:36.611Z,4.10
2019-05-04T03:51:20.407Z,4.20
2019-05-04T03:53:50.625Z,4.20
2019-05-04T03:56:20.734Z,4.30
2019-05-04T03:58:52.792Z,4.30
2019-05-04T04:01:44.972Z,4.40
2019-05-04T04:04:17.297Z,4.50
2019-05-04T04:07:00.388Z,4.60
2019-05-04T04:09:31.472Z,4.70
2019-05-04T04:12:01.796Z,4.80
2019-05-04T04:14:31.875Z,4.90
2019-05-04T04:17:15.038Z,4.90
2019-05-04T04:20:05.588Z,5.00
2019-05-04T04:22:41.328Z,5.00
2019-05-04T04:25:15.698Z,5.10
2019-05-04T04:27:48.485Z,5.20
2019-05-04T04:30:20.657Z,5.30
2019-05-04T04:33:00.801Z,5.30
2019-05-04T04:35:30.906Z,5.40
2019-05-04T04:38:00.982Z,5.50
2019-05-04T04:40:40.151Z,5.50
2019-05-04T04:43:10.244Z,5.50
2019-05-04T04:45:41.365Z,5.60
2019-05-04T04:48:24.302Z,5.70
2019-05-04T04:50:45.242Z,5.80
2019-05-04T04:53:15.786Z,5.80
2019-05-04T04:55:51.984Z,5.90
2019-05-04T04:58:27.671Z,6.00
2019-05-04T05:01:15.956Z,6.10
2019-05-04T05:03:46.948Z,6.10
2019-05-04T05:06:20.266Z,6.10
2019-05-04T05:08:50.360Z,6.20
2019-05-04T05:11:25.987Z,6.20
2019-05-04T05:13:59.095Z,6.20
2019-05-04T05:16:36.215Z,6.30
2019-05-04T05:19:06.300Z,6.30
2019-05-04T05:21:38.255Z,6.40
2019-05-04T05:24:08.440Z,6.40
2019-05-04T05:26:39.499Z,6.50
2019-05-04T05:29:10.571Z,6.60
2019-05-04T05:31:42.312Z,6.60
2019-05-04T05:34:29.591Z,6.60
2019-05-04T05:37:07.755Z,6.50
2019-05-04T05:39:57.622Z,6.60
2019-05-04T05:42:19.468Z,6.60
2019-05-04T05:44:56.544Z,6.60
2019-05-04T05:47:30.929Z,6.60
2019-05-04T05:50:12.635Z,6.60
2019-05-04T05:52:48.786Z,6.60
2019-05-04T05:55:27.316Z,6.70
2019-05-04T05:58:05.065Z,6.80
2019-05-04T06:00:54.937Z,6.90
2019-05-04T06:03:32.350Z,6.90
2019-05-04T06:06:09.695Z,7.10
2019-05-04T06:08:48.027Z,7.20
2019-05-04T06:11:24.802Z,7.30
2019-05-04T06:14:14.924Z,7.40
2019-05-04T06:16:58.361Z,7.50
2019-05-04T06:19:39.754Z,7.50
2019-05-04T06:22:28.859Z,7.60
2019-05-04T06:25:09.328Z,7.50
2019-05-04T06:27:59.079Z,7.50
2019-05-04T06:30:45.936Z,7.40
2019-05-04T06:33:17.660Z,7.40
2019-05-04T06:35:49.379Z,7.40
2019-05-04T06:38:21.109Z,7.40
2019-05-04T06:40:57.208Z,7.50
2019-05-04T06:43:54.544Z,7.50
2019-05-04T06:46:14.437Z,7.50
2019-05-04T06:48:44.860Z,7.60
2019-05-04T06:51:25.594Z,7.70
2019-05-04T06:54:14.808Z,7.80
2019-05-04T06:56:48.604Z,8.00
2019-05-04T06:59:32.575Z,8.30
2019-05-04T07:02:04.131Z,8.60
2019-05-04T07:04:41.970Z,8.80
2019-05-04T07:07:12.888Z,8.90
2019-05-04T07:09:48.865Z,9.20
2019-05-04T07:12:20.432Z,9.40
2019-05-04T07:14:55.388Z,9.70
2019-05-04T07:17:26.551Z,9.90
2019-05-04T07:20:00.410Z,10.10
2019-05-04T07:22:40.656Z,10.30
2019-05-04T07:25:09.050Z,10.40
2019-05-04T07:27:44.109Z,10.40
2019-05-04T07:30:15.269Z,10.50
2019-05-04T07:32:47.279Z,10.60
2019-05-04T07:35:32.000Z,10.60
2019-05-04T07:38:04.882Z,10.50
2019-05-04T07:40:36.108Z,10.50
2019-05-04T07:43:07.440Z,10.50
2019-05-04T07:45:38.541Z,10.60
2019-05-04T07:48:24.810Z,10.70
2019-05-04T07:50:59.899Z,10.70
2019-05-04T07:53:30.960Z,10.60
2019-05-04T07:56:07.247Z,10.60
2019-05-04T07:58:39.666Z,10.60
2019-05-04T08:01:09.225Z,10.60
2019-05-04T08:03:39.336Z,10.60
2019-05-04T08:06:09.966Z,10.40
2019-05-04T08:08:56.879Z,10.40
2019-05-04T08:11:27.956Z,10.40
2019-05-04T08:14:11.010Z,10.50
2019-05-04T08:16:59.605Z,10.60
2019-05-04T08:19:30.148Z,10.80
2019-05-04T08:22:11.129Z,11.00
2019-05-04T08:24:44.982Z,11.00
2019-05-04T08:27:25.952Z,11.00
2019-05-04T08:30:05.825Z,10.60
2019-05-04T08:32:46.038Z,10.20
2019-05-04T08:35:15.473Z,10.00
2019-05-04T08:37:46.656Z,9.80
2019-05-04T08:40:17.464Z,9.80
2019-05-04T08:42:48.352Z,9.80
2019-05-04T08:45:21.258Z,9.70
2019-05-04T08:48:04.575Z,9.80
2019-05-04T08:50:46.060Z,9.80
2019-05-04T08:53:25.151Z,9.90
2019-05-04T08:55:58.845Z,10.10
2019-05-04T08:59:00.924Z,10.30
2019-05-04T09:01:26.088Z,10.60
2019-05-04T09:04:00.944Z,10.70
2019-05-04T09:06:36.099Z,10.80
2019-05-04T09:09:11.384Z,10.70
2019-05-04T09:11:41.024Z,10.50
2019-05-04T09:14:11.101Z,10.50
2019-05-04T09:16:41.220Z,10.70
2019-05-04T09:19:15.476Z,10.70
2019-05-04T09:22:14.576Z,10.70
2019-05-04T09:24:25.234Z,10.60
2019-05-04T09:26:58.330Z,10.10
2019-05-04T09:29:30.938Z,9.50
2019-05-04T09:32:09.568Z,8.90
2019-05-04T09:34:38.692Z,8.30
2019-05-04T09:37:18.173Z,7.80
2019-05-04T09:39:47.408Z,7.60
2019-05-04T09:42:47.228Z,7.50
2019-05-04T09:45:26.463Z,7.50
2019-05-04T09:47:51.640Z,7.70
2019-05-04T09:50:36.840Z,8.00
2019-05-04T09:53:17.087Z,8.20
2019-05-04T09:55:42.361Z,8.50
2019-05-04T09:58:29.739Z,8.90
2019-05-04T10:00:58.718Z,9.40
2019-05-04T10:03:35.592Z,9.80
2019-05-04T10:06:05.749Z,9.80
2019-05-04T10:08:35.836Z,9.70
2019-05-04T10:11:10.586Z,9.80
2019-05-04T10:13:45.175Z,9.90
2019-05-04T10:16:25.471Z,9.70
2019-05-04T10:18:57.294Z,9.60
2019-05-04T10:21:27.396Z,9.60
2019-05-04T10:23:57.480Z,9.60
2019-05-04T10:26:35.963Z,9.50
2019-05-04T10:29:07.748Z,9.50
2019-05-04T10:31:45.037Z,9.60
2019-05-04T10:34:15.362Z,9.40
2019-05-04T10:36:46.220Z,9.30
2019-05-04T10:39:17.360Z,9.20
2019-05-04T10:41:51.092Z,8.90
2019-05-04T10:44:24.740Z,8.50
2019-05-04T10:47:04.862Z,7.70
2019-05-04T10:49:35.297Z,7.50
2019-05-04T10:52:05.983Z,7.20
2019-05-04T10:54:41.393Z,6.80
2019-05-04T10:57:12.808Z,6.60
2019-05-04T10:59:44.677Z,6.50
2019-05-04T11:02:15.070Z,6.50
2019-05-04T11:04:45.374Z,6.40
2019-05-04T11:07:16.656Z,6.10
2019-05-04T11:09:47.832Z,6.10
2019-05-04T11:12:19.092Z,6.10
2019-05-04T11:14:52.524Z,6.00
2019-05-04T11:17:23.077Z,5.90
2019-05-04T11:19:55.797Z,5.80
2019-05-04T11:22:32.060Z,5.70
2019-05-04T11:25:20.740Z,5.70
2019-05-04T11:27:52.648Z,5.70
2019-05-04T11:30:24.886Z,5.80
2019-05-04T11:32:54.891Z,5.90
2019-05-04T11:35:25.618Z,5.80
2019-05-04T11:37:58.896Z,5.70
2019-05-04T11:40:35.658Z,5.60
2019-05-04T11:43:29.728Z,5.40
2019-05-04T11:45:57.335Z,5.40
2019-05-04T11:48:27.608Z,5.30
2019-05-04T11:50:58.984Z,5.20
2019-05-04T11:53:30.144Z,5.20
2019-05-04T11:56:00.308Z,5.00
2019-05-04T11:58:36.363Z,5.10
2019-05-04T12:01:07.446Z,5.10
2019-05-04T12:03:44.489Z,5.00
2019-05-04T12:06:25.277Z,5.10
2019-05-04T12:09:01.372Z,5.00
2019-05-04T12:11:31.600Z,4.90
2019-05-04T12:14:04.694Z,4.90
2019-05-04T12:16:34.884Z,4.60
2019-05-04T12:19:09.152Z,4.60
2019-05-04T12:21:42.647Z,4.80
2019-05-04T12:24:16.286Z,4.70
2019-05-04T12:26:54.973Z,4.50
2019-05-04T12:29:24.900Z,4.40
2019-05-04T12:31:55.392Z,4.60
2019-05-04T12:34:38.613Z,4.80
2019-05-04T12:37:17.782Z,4.60
2019-05-04T12:40:15.374Z,4.50
2019-05-04T12:43:34.431Z,4.30
2019-05-04T12:46:08.613Z,4.30
2019-05-04T12:48:51.060Z,4.60
2019-05-04T12:51:27.949Z,4.50
2019-05-04T12:53:59.981Z,4.30
2019-05-04T12:56:37.373Z,4.40
2019-05-04T12:59:10.805Z,4.20
2019-05-04T13:01:41.570Z,4.40
2019-05-04T13:04:17.625Z,4.40
2019-05-04T13:06:52.121Z,4.30
2019-05-04T13:09:23.679Z,4.40
2019-05-04T13:11:55.821Z,4.30
2019-05-04T13:14:26.064Z,4.20
2019-05-04T13:17:11.846Z,4.20
2019-05-04T13:19:51.093Z,4.10
2019-05-04T13:22:21.454Z,4.20
2019-05-04T13:24:57.517Z,4.30
2019-05-04T13:27:28.916Z,4.50
2019-05-04T13:29:59.309Z,4.60
2019-05-04T13:32:29.684Z,4.80
2019-05-04T13:35:06.208Z,4.80
2019-05-04T13:37:38.881Z,4.80
2019-05-04T13:40:10.882Z,4.50
2019-05-04T13:42:41.481Z,4.30
2019-05-04T13:45:15.050Z,4.30
2019-05-04T13:47:47.464Z,4.30
2019-05-04T13:50:18.941Z,4.40
2019-05-04T13:52:51.361Z,4.40
2019-05-04T13:55:31.841Z,4.30
2019-05-04T13:58:04.960Z,4.20
2019-05-04T14:00:43.155Z,4.20
2019-05-04T14:03:24.735Z,4.20
2019-05-04T14:06:05.282Z,4.10
2019-05-04T14:08:35.625Z,3.90
2019-05-04T14:11:16.870Z,3.80
2019-05-04T14:13:45.364Z,3.70
2019-05-04T14:16:20.150Z,3.80
2019-05-04T14:18:52.128Z,3.80
2019-05-04T14:21:22.544Z,3.90
2019-05-04T14:24:00.989Z,4.10
2019-05-04T14:26:31.453Z,4.20
2019-05-04T14:29:04.592Z,4.40
2019-05-04T14:31:36.644Z,4.50
2019-05-04T14:34:07.711Z,4.40
2019-05-04T14:36:45.286Z,4.30
2019-05-04T14:39:15.849Z,4.60
2019-05-04T14:41:47.062Z,4.40
2019-05-04T14:44:38.428Z,4.40
2019-05-04T14:47:12.408Z,4.30
2019-05-04T14:49:45.731Z,4.10
2019-05-04T14:52:16.693Z,4.10
2019-05-04T14:54:50.221Z,4.00
2019-05-04T14:57:20.477Z,3.90
2019-05-04T14:59:51.829Z,3.90
2019-05-04T15:02:28.666Z,4.00
2019-05-04T15:05:01.130Z,4.20
2019-05-04T15:07:31.510Z,4.30
2019-05-04T15:10:06.990Z,4.10
2019-05-04T15:12:38.236Z,3.80
2019-05-04T15:15:22.124Z,3.80
2019-05-04T15:17:58.565Z,3.70
2019-05-04T15:20:30.885Z,3.90
2019-05-04T15:23:01.420Z,3.80
2019-05-04T15:25:31.786Z,3.90
2019-05-04T15:28:01.909Z,3.80
2019-05-04T15:30:35.049Z,3.90
2019-05-04T15:33:05.302Z,4.00
2019-05-04T15:35:37.489Z,4.10
2019-05-04T15:38:07.825Z,4.20
2019-05-04T15:40:44.083Z,4.20
2019-05-04T15:43:15.508Z,4.20
2019-05-04T15:45:45.697Z,4.30
2019-05-04T15:48:21.688Z,4.30
2019-05-04T15:50:55.359Z,4.30
2019-05-04T15:53:39.053Z,4.40
2019-05-04T15:56:20.057Z,4.50
2019-05-04T15:58:59.956Z,4.60
2019-05-04T16:01:35.949Z,4.60
2019-05-04T16:04:12.425Z,4.40
2019-05-04T16:06:45.081Z,4.20
2019-05-04T16:09:18.436Z,4.00
2019-05-04T16:11:48.769Z,4.00
2019-05-04T16:14:19.020Z,3.90
2019-05-04T16:16:49.372Z,4.00
2019-05-04T16:19:19.713Z,4.00
2019-05-04T16:21:50.257Z,4.00
2019-05-04T16:24:20.557Z,4.00
2019-05-04T16:26:50.719Z,4.00
2019-05-04T16:29:22.465Z,4.00
2019-05-04T16:31:55.958Z,4.00
2019-05-04T16:34:37.202Z,4.00
2019-05-04T16:37:07.537Z,3.90
2019-05-04T16:39:45.720Z,4.00
2019-05-04T16:42:16.025Z,4.20
2019-05-04T16:44:54.138Z,4.30
2019-05-04T16:47:26.232Z,4.40
2019-05-04T16:50:06.799Z,4.40
2019-05-04T16:52:57.786Z,4.50
2019-05-04T16:55:30.749Z,4.60
2019-05-04T16:58:06.802Z,4.50
2019-05-04T17:00:45.472Z,4.40
2019-05-04T17:03:19.059Z,4.40
2019-05-04T17:05:49.490Z,4.40
2019-05-04T17:08:20.164Z,4.50
2019-05-04T17:10:50.836Z,4.50
2019-05-04T17:13:24.801Z,4.40
2019-05-04T17:16:09.334Z,4.30
2019-05-04T17:18:35.169Z,4.30
2019-05-04T17:21:20.138Z,4.20
2019-05-04T17:23:50.663Z,4.20
2019-05-04T17:26:24.588Z,4.20
2019-05-04T17:29:06.910Z,4.20
2019-05-04T17:31:40.089Z,4.00
2019-05-04T17:34:10.979Z,4.10
2019-05-04T17:36:48.509Z,4.00
2019-05-04T17:39:19.368Z,4.00
2019-05-04T17:41:54.421Z,3.90
2019-05-04T17:44:29.641Z,3.70
2019-05-04T17:47:08.772Z,3.70
2019-05-04T17:49:39.097Z,3.70
2019-05-04T17:52:09.493Z,3.60
2019-05-04T17:54:40.601Z,3.50
2019-05-04T17:57:10.966Z,3.50
2019-05-04T17:59:45.100Z,3.40
2019-05-04T18:02:29.154Z,3.40
2019-05-04T18:05:02.190Z,3.40
2019-05-04T18:07:34.265Z,3.30
2019-05-04T18:10:07.869Z,3.20
2019-05-04T18:12:42.329Z,3.10
2019-05-04T18:15:30.321Z,3.00
2019-05-04T18:18:08.409Z,3.00
2019-05-04T18:20:44.475Z,3.00
2019-05-04T18:23:25.810Z,2.90
2019-05-04T18:25:57.085Z,2.90
2019-05-04T18:28:27.494Z,2.80
2019-05-04T18:30:57.881Z,2.80
2019-05-04T18:33:29.145Z,2.70
2019-05-04T18:36:20.413Z,2.70
2019-05-04T18:38:50.534Z,2.60
2019-05-04T18:41:32.200Z,2.60
2019-05-04T18:44:04.675Z,2.50
2019-05-04T18:46:54.477Z,2.50
2019-05-04T18:49:26.321Z,2.50
2019-05-04T18:51:56.475Z,2.50
2019-05-04T18:54:32.706Z,2.40
2019-05-04T18:57:08.833Z,2.40
2019-05-04T18:59:41.175Z,2.40
2019-05-04T19:02:14.173Z,2.40
2019-05-04T19:04:44.758Z,2.40
2019-05-04T19:07:29.749Z,2.30
2019-05-04T19:10:04.517Z,2.30
2019-05-04T19:12:38.362Z,2.30
2019-05-04T19:15:11.421Z,2.30
2019-05-04T19:17:41.862Z,2.30
2019-05-04T19:20:21.373Z,2.20
2019-05-04T19:22:50.773Z,2.30
2019-05-04T19:25:21.259Z,2.20
2019-05-04T19:27:53.394Z,2.20
2019-05-04T19:30:29.841Z,2.20
2019-05-04T19:33:05.294Z,2.20
2019-05-04T19:35:37.974Z,2.20
2019-05-04T19:38:09.777Z,2.20
2019-05-04T19:40:40.801Z,2.10
2019-05-04T19:43:21.585Z,2.10
2019-05-04T19:46:10.949Z,2.10
2019-05-04T19:48:49.222Z,2.10
2019-05-04T19:51:26.498Z,2.10
2019-05-04T19:54:00.085Z,2.00
2019-05-04T19:56:34.469Z,2.00
2019-05-04T19:59:05.232Z,1.90
2019-05-04T20:01:35.661Z,1.90
2019-05-04T20:04:06.906Z,1.90
2019-05-04T20:06:58.768Z,1.80
2019-05-04T20:09:45.845Z,1.70
2019-05-04T20:12:17.587Z,1.60
2019-05-04T20:15:07.710Z,1.50
2019-05-04T20:17:19.478Z,1.40
2019-05-04T20:19:50.589Z,1.50
2019-05-04T20:22:20.700Z,1.70
2019-05-04T20:24:57.492Z,1.80
2019-05-04T20:27:34.673Z,2.00
2019-05-04T20:30:07.325Z,2.00
2019-05-04T20:32:39.417Z,2.00
2019-05-04T20:35:10.649Z,2.00
2019-05-04T20:37:45.242Z,2.00
2019-05-04T20:40:16.347Z,2.00
2019-05-04T20:42:47.701Z,2.00
2019-05-04T20:45:34.720Z,2.10
2019-05-04T20:48:06.878Z,2.00
2019-05-04T20:50:37.977Z,1.90
2019-05-04T20:53:24.442Z,1.70
2019-05-04T20:55:54.093Z,1.50
2019-05-04T20:58:27.189Z,1.30
2019-05-04T21:00:58.246Z,1.10
2019-05-04T21:03:34.713Z,1.00
2019-05-04T21:06:22.693Z,0.90
2019-05-04T21:09:01.873Z,0.80
2019-05-04T21:11:32.009Z,0.80
2019-05-04T21:14:05.719Z,0.70
2019-05-04T21:16:38.561Z,0.60
2019-05-04T21:19:24.513Z,0.50
2019-05-04T21:21:56.433Z,0.50
2019-05-04T21:24:27.469Z,0.40
2019-05-04T21:27:01.874Z,0.20
2019-05-04T21:29:34.828Z,0.20
2019-05-04T21:32:05.569Z,0.20
2019-05-04T21:34:37.877Z,0.30
2019-05-04T21:37:18.267Z,0.30
2019-05-04T21:39:48.606Z,0.30
2019-05-04T21:42:18.833Z,0.10
2019-05-04T21:44:54.455Z,0.00
2019-05-04T21:47:34.245Z,-0.10
2019-05-04T21:50:15.133Z,-0.20
2019-05-04T21:52:45.631Z,-0.30
2019-05-04T21:55:18.535Z,-0.30
2019-05-04T21:57:48.742Z,-0.30
2019-05-04T22:00:37.717Z,-0.20
2019-05-04T22:03:09.605Z,-0.20
2019-05-04T22:05:44.665Z,0.00
2019-05-04T22:08:16.201Z,0.10
2019-05-04T22:10:46.521Z,0.20
2019-05-04T22:13:16.953Z,0.20
2019-05-04T22:15:48.559Z,0.10
2019-05-04T22:18:29.583Z,0.10
2019-05-04T22:20:56.666Z,0.20
2019-05-04T22:23:26.710Z,0.40
2019-05-04T22:25:57.058Z,0.60
2019-05-04T22:28:29.509Z,0.70
2019-05-04T22:31:07.213Z,0.80
2019-05-04T22:33:46.741Z,1.00
2019-05-04T22:36:29.581Z,1.00
2019-05-04T22:38:59.857Z,1.10
2019-05-04T22:41:31.057Z,1.10
2019-05-04T22:44:04.227Z,1.20
2019-05-04T22:46:35.373Z,1.10
2019-05-04T22:49:18.057Z,1.10
2019-05-04T22:51:54.831Z,1.00
2019-05-04T22:54:50.798Z,0.90
2019-05-04T22:57:26.628Z,0.80
2019-05-04T23:00:15.060Z,0.70
2019-05-04T23:02:56.135Z,0.70
2019-05-04T23:05:25.013Z,0.70
2019-05-04T23:08:08.050Z,0.70
2019-05-04T23:10:40.185Z,0.80
2019-05-04T23:13:10.258Z,0.70
2019-05-04T23:15:40.767Z,0.70
2019-05-04T23:18:12.009Z,0.70
2019-05-04T23:20:42.197Z,0.70
2019-05-04T23:23:14.478Z,0.60
2019-05-04T23:25:52.761Z,0.60
2019-05-04T23:28:25.133Z,0.60
2019-05-04T23:31:01.406Z,0.50
2019-05-04T23:33:31.561Z,0.50
2019-05-04T23:36:04.830Z,0.40
2019-05-04T23:38:35.052Z,0.40
2019-05-04T23:41:05.545Z,0.30
2019-05-04T23:43:36.001Z,0.30
2019-05-04T23:46:14.896Z,0.30
2019-05-04T23:48:46.594Z,0.20
2019-05-04T23:51:18.189Z,0.30
2019-05-04T23:53:48.433Z,0.40
2019-05-04T23:56:22.298Z,0.50
2019-05-04T23:59:12.639Z,0.60
